Preview of NWS' New Version of Forecast
This preview is not operational and should not be used for support decisions.

Terminal Aerodrome Forecast (TAF)

Issued by National Weather Service (NWS)

                            
653 
FTUS42 KMFL 280254 AAA
TAFMIA
TAF AMD
KMIA 280254Z 2803/2906 16012KT P6SM SHRA SCT020 BKN035 OVC050
     FM281400 17014G24KT P6SM SHRA SCT015 BKN035
     FM281700 20018G28KT P6SM SHRA VCTS SCT015CB BKN035
     FM290000 16012KT P6SM VCSH SCT020 BKN040=